Boris Syromyatnikov — UCUF — position and weather

sailwx.info

Track history (hours):
 
Tides and Currents Weather Stations Pressure Air Temp Water Temp Dewpoint Dewpoint Depression Visibility Wind Speed Wind Dir Waves Ship Positions

Boris Syromyatnikov

Last reported at 2017-Oct-16 01:17 UTC. Time now 2017-Oct-22 21:10 UTC.
Position N 62°24' W 006°50'.

Length 120 m; beam 19 m.

Type: Fishing. MMSI: 273529800.

Date/timePositionNaut miles runAvg speedWind from/ knotsBaromVisibWave heightAir tempDewpointWater temp
2017-Oct-16 01:17N 62°24' W 006°50'413.5
2017-Oct-16 01:00N 62°20' W 006°50'612.6
2017-Oct-16 00:31N 62°14' W 006°47'0 0.8
2017-Oct-15 23:58N 62°14' W 006°48'0 0.0
2017-Oct-15 23:27N 62°14' W 006°48'0 0.0
2017-Oct-15 22:58N 62°14' W 006°48'0 0.0
2017-Oct-15 22:28N 62°14' W 006°48'0 0.0
2017-Oct-15 21:59N 62°14' W 006°48'0 0.0
2017-Oct-15 21:28N 62°14' W 006°48'0 0.0
2017-Oct-15 21:00N 62°14' W 006°48'0 0.0
2017-Oct-15 20:30N 62°14' W 006°48'0 0.0
2017-Oct-15 19:56N 62°14' W 006°48'0 0.0
2017-Oct-15 19:26N 62°14' W 006°48'0 0.0
2017-Oct-15 18:59N 62°14' W 006°48'0 0.2
2017-Oct-15 18:31N 62°14' W 006°48'1 2.5
2017-Oct-15 18:01N 62°14' W 006°45'510.2
2017-Oct-15 17:30N 62°11' W 006°36'713.2
2017-Oct-15 17:00N 62°05' W 006°37'4 8.4
2017-Oct-15 16:30N 62°06' W 006°45'1 1.8
2017-Oct-15 15:58N 62°07' W 006°43'0 0.0
2017-Oct-15 15:30N 62°07' W 006°43'0 0.0
2017-Oct-15 15:00N 62°07' W 006°43'0 0.0
2017-Oct-15 13:56N 62°07' W 006°44'0 0.0
2017-Oct-15 13:29N 62°07' W 006°43'0 0.0
2017-Oct-15 12:59N 62°07' W 006°44'0 0.0
2017-Oct-15 12:29N 62°07' W 006°43'0 0.0
2017-Oct-15 11:58N 62°07' W 006°43'0 0.0
2017-Oct-15 11:28N 62°07' W 006°43'0 0.0
2017-Oct-15 10:58N 62°07' W 006°43'0 0.0
2017-Oct-15 10:30N 62°07' W 006°43'0 0.0
2017-Oct-15 10:00N 62°07' W 006°43'0 0.0
2017-Oct-15 09:30N 62°07' W 006°43'0 0.0
2017-Oct-15 08:59N 62°07' W 006°44'0 0.0
2017-Oct-15 08:29N 62°07' W 006°43'0 0.0
2017-Oct-15 07:58N 62°07' W 006°43'0 0.0
2017-Oct-15 07:30N 62°07' W 006°44'0 0.0
2017-Oct-15 06:58N 62°07' W 006°44'0 0.0
2017-Oct-15 06:29N 62°07' W 006°44'0 0.0
2017-Oct-15 06:00N 62°07' W 006°43'0 0.0
2017-Oct-15 05:30N 62°07' W 006°44'0 0.0
2017-Oct-15 04:58N 62°07' W 006°43'0 0.0
2017-Oct-15 04:28N 62°07' W 006°43'0 0.0
2017-Oct-15 04:00N 62°07' W 006°43'0 0.0
2017-Oct-15 03:28N 62°07' W 006°43'0 0.0
2017-Oct-15 02:58N 62°07' W 006°44'0 0.0
2017-Oct-15 02:28N 62°07' W 006°43'0 0.0
2017-Oct-15 01:59N 62°07' W 006°43'  
Track history (hours):
 
Tides and Currents Weather Stations Pressure Air Temp Water Temp Dewpoint Dewpoint Depression Visibility Wind Speed Wind Dir Waves Ship Positions

Boris Syromyatnikov

Last reported at 2017-Oct-16 01:17 UTC. Time now 2017-Oct-22 21:10 UTC.
Position N 62°24' W 006°50'.

Length 120 m; beam 19 m.

Type: Fishing. MMSI: 273529800.

Date/timePositionNaut miles runAvg speedWind from/ knotsBaromVisibWave heightAir tempDewpointWater temp
2017-Oct-16 01:17N 62°24' W 006°50'413.5
2017-Oct-16 01:00N 62°20' W 006°50'612.6
2017-Oct-16 00:31N 62°14' W 006°47'0 0.8
2017-Oct-15 23:58N 62°14' W 006°48'0 0.0
2017-Oct-15 23:27N 62°14' W 006°48'0 0.0
2017-Oct-15 22:58N 62°14' W 006°48'0 0.0
2017-Oct-15 22:28N 62°14' W 006°48'0 0.0
2017-Oct-15 21:59N 62°14' W 006°48'0 0.0
2017-Oct-15 21:28N 62°14' W 006°48'0 0.0
2017-Oct-15 21:00N 62°14' W 006°48'0 0.0
2017-Oct-15 20:30N 62°14' W 006°48'0 0.0
2017-Oct-15 19:56N 62°14' W 006°48'0 0.0
2017-Oct-15 19:26N 62°14' W 006°48'0 0.0
2017-Oct-15 18:59N 62°14' W 006°48'0 0.2
2017-Oct-15 18:31N 62°14' W 006°48'1 2.5
2017-Oct-15 18:01N 62°14' W 006°45'510.2
2017-Oct-15 17:30N 62°11' W 006°36'713.2
2017-Oct-15 17:00N 62°05' W 006°37'4 8.4
2017-Oct-15 16:30N 62°06' W 006°45'1 1.8
2017-Oct-15 15:58N 62°07' W 006°43'0 0.0
2017-Oct-15 15:30N 62°07' W 006°43'0 0.0
2017-Oct-15 15:00N 62°07' W 006°43'0 0.0
2017-Oct-15 13:56N 62°07' W 006°44'0 0.0
2017-Oct-15 13:29N 62°07' W 006°43'0 0.0
2017-Oct-15 12:59N 62°07' W 006°44'0 0.0
2017-Oct-15 12:29N 62°07' W 006°43'0 0.0
2017-Oct-15 11:58N 62°07' W 006°43'0 0.0
2017-Oct-15 11:28N 62°07' W 006°43'0 0.0
2017-Oct-15 10:58N 62°07' W 006°43'0 0.0
2017-Oct-15 10:30N 62°07' W 006°43'0 0.0
2017-Oct-15 10:00N 62°07' W 006°43'0 0.0
2017-Oct-15 09:30N 62°07' W 006°43'0 0.0
2017-Oct-15 08:59N 62°07' W 006°44'0 0.0
2017-Oct-15 08:29N 62°07' W 006°43'0 0.0
2017-Oct-15 07:58N 62°07' W 006°43'0 0.0
2017-Oct-15 07:30N 62°07' W 006°44'0 0.0
2017-Oct-15 06:58N 62°07' W 006°44'0 0.0
2017-Oct-15 06:29N 62°07' W 006°44'0 0.0
2017-Oct-15 06:00N 62°07' W 006°43'0 0.0
2017-Oct-15 05:30N 62°07' W 006°44'0 0.0
2017-Oct-15 04:58N 62°07' W 006°43'0 0.0
2017-Oct-15 04:28N 62°07' W 006°43'0 0.0
2017-Oct-15 04:00N 62°07' W 006°43'0 0.0
2017-Oct-15 03:28N 62°07' W 006°43'0 0.0
2017-Oct-15 02:58N 62°07' W 006°44'0 0.0
2017-Oct-15 02:28N 62°07' W 006°43'0 0.0
2017-Oct-15 01:59N 62°07' W 006°43'  

Dump ship's entire track history